Terminal Aerodrome Forecast
Issued by NWS

Home | Current Version | Previous Version | Text Only | Print | Product List | Glossary On
Versions: 1 2 3 4 5 6 7 8 9 10 11 12 13 14 15 16
000
FTUS44 KBMX 150700 AAA
TAFANB
TAF AMD
KANB 150722Z 1507/1606 06007KT P6SM OVC007
     FM151000 06003KT 4SM BR OVC007
     FM151300 VRB03KT 4SM BR BKN015
     FM151700 16005KT P6SM VCSH SCT015 OVC060
     FM152000 34005KT P6SM SHRA VCTS SCT025CB BKN050=

USA.gov is the U.S. government's official web portal to all federal, state and local government web resources and services.